Time;durP1;ratioP1;P1;durP2;ratioP2;P2;SDS_P1;SDS_P2;PMS_P1;PMS_P2;Temp;Humidity;BMP_temperature;BMP_pressure;BME280_temperature;BME280_humidity;BME280_pressure;Samples;Min_cycle;Max_cycle;Signal;HPM_P1;HPM_P2
2022/09/25 00:00:36;;;;;;;11.23;2.63;;;;;;;9.06;100.00;100514.81;7389845;19;20063;-56
2022/09/25 00:03:02;;;;;;;2.72;1.08;;;;;;;10.45;100.00;100503.69;7388345;19;20039;-56
2022/09/25 00:05:29;;;;;;;1.40;1.35;;;;;;;6.72;100.00;100504.72;7389481;19;20022;-56
2022/09/25 00:07:55;;;;;;;0.63;0.63;;;;;;;5.29;100.00;100504.72;7389146;19;20499;-57
2022/09/25 00:10:27;;;;;;;0.95;0.95;;;;;;;7.27;100.00;100512.78;7387753;19;20114;-56
2022/09/25 00:12:53;;;;;;;1.30;1.20;;;;;;;9.93;100.00;100504.50;7387112;19;20010;-56
2022/09/25 00:15:19;;;;;;;2.30;1.00;;;;;;;10.33;100.00;100496.19;7391177;19;20018;-57
2022/09/25 00:17:45;;;;;;;1.25;1.23;;;;;;;10.80;100.00;100500.66;7394435;19;20015;-56
2022/09/25 00:20:14;;;;;;;4.78;0.88;;;;;;;10.78;100.00;100503.16;7396010;19;20019;-56
2022/09/25 00:22:41;;;;;;;0.85;0.85;;;;;;;10.51;100.00;100504.63;7395029;19;20074;-57
2022/09/25 00:25:14;;;;;;;0.47;0.47;;;;;;;10.45;100.00;100503.69;7395445;19;20007;-56
2022/09/25 00:27:42;;;;;;;1.38;1.05;;;;;;;10.68;100.00;100499.53;7397391;19;20478;-56
2022/09/25 00:30:11;;;;;;;1.15;1.15;;;;;;;10.74;100.00;100494.16;7395250;19;20355;-56
2022/09/25 00:32:37;;;;;;;1.10;1.00;;;;;;;10.64;100.00;100494.13;7395404;19;20018;-56
2022/09/25 00:35:04;;;;;;;0.60;0.60;;;;;;;10.69;100.00;100495.53;7396604;19;20006;-57
2022/09/25 00:37:33;;;;;;;1.65;0.95;;;;;;;10.65;100.00;100495.66;7394595;19;20038;-56
2022/09/25 00:39:59;;;;;;;0.88;0.63;;;;;;;10.28;100.00;100491.25;7393568;19;20014;-56
2022/09/25 00:42:25;;;;;;;3.30;0.52;;;;;;;10.63;100.00;100502.97;7394817;19;20035;-57
2022/09/25 00:45:00;;;;;;;2.30;1.02;;;;;;;10.83;100.00;100494.94;7394959;19;20021;-56
2022/09/25 00:47:37;;;;;;;1.17;1.17;;;;;;;10.68;100.00;100494.75;7393091;19;20019;-56
2022/09/25 00:50:18;;;;;;;0.65;0.57;;;;;;;10.63;100.00;100498.13;7394642;19;20074;-56
2022/09/25 00:52:45;;;;;;;1.65;1.25;;;;;;;10.53;100.00;100507.72;7392040;19;20010;-56
2022/09/25 00:55:13;;;;;;;0.88;0.70;;;;;;;10.53;100.00;100507.72;7393864;19;20018;-56
2022/09/25 00:57:45;;;;;;;0.60;0.60;;;;;;;10.24;100.00;100503.75;7396200;19;20114;-56
2022/09/25 01:00:12;;;;;;;4.43;0.70;;;;;;;9.91;100.00;100508.97;7391736;19;20014;-56
2022/09/25 01:02:42;;;;;;;0.70;0.70;;;;;;;9.90;100.00;100499.84;7393544;19;20470;-56
2022/09/25 01:05:17;;;;;;;0.70;0.70;;;;;;;9.43;100.00;100495.66;7394755;19;20014;-56
2022/09/25 01:07:46;;;;;;;0.73;0.73;;;;;;;9.95;100.00;100492.91;7394773;19;20083;-56
2022/09/25 01:10:13;;;;;;;0.50;0.50;;;;;;;10.14;100.00;100491.78;7395842;19;20018;-56
2022/09/25 01:12:43;;;;;;;0.82;0.82;;;;;;;10.24;100.00;100503.75;7397978;19;20006;-57
2022/09/25 01:15:12;;;;;;;1.85;0.80;;;;;;;10.07;100.00;100497.59;7397771;19;20021;-56
2022/09/25 01:18:15;;;;;;;14.38;0.85;;;;;;;10.20;100.00;100498.28;7393702;19;20066;-57
2022/09/25 01:21:04;;;;;;;1.25;0.93;;;;;;;10.04;100.00;100489.38;7392235;19;20012;-57
2022/09/25 01:23:53;;;;;;;3.97;1.08;;;;;;;8.99;100.00;100495.59;7390358;19;20015;-57
2022/09/25 01:26:58;;;;;;;9.00;0.82;;;;;;;9.63;100.00;100493.34;7392719;19;20037;-57
2022/09/25 01:29:51;;;;;;;0.60;0.60;;;;;;;9.70;100.00;100498.63;7391570;19;20489;-57
2022/09/25 01:32:35;;;;;;;6.13;1.42;;;;;;;9.58;100.00;100505.81;7392612;19;20074;-56
2022/09/25 01:35:02;;;;;;;0.63;0.63;;;;;;;9.64;100.00;100498.44;7394381;19;20011;-56
2022/09/25 01:37:47;;;;;;;0.60;0.60;;;;;;;9.44;100.00;100491.66;7392503;19;20012;-56
2022/09/25 01:40:19;;;;;;;2.00;0.60;;;;;;;9.40;100.00;100499.34;7391624;19;20010;-57
2022/09/25 01:42:59;;;;;;;1.58;1.48;;;;;;;9.57;100.00;100495.16;7392944;19;20011;-56
2022/09/25 01:45:35;;;;;;;0.83;0.73;;;;;;;10.01;100.00;100498.63;7394278;19;20010;-57
2022/09/25 01:48:04;;;;;;;0.75;0.75;;;;;;;10.17;100.00;100499.22;7393585;19;20006;-56
2022/09/25 01:50:46;;;;;;;0.63;0.63;;;;;;;10.14;100.00;100493.78;7392540;19;20027;-57
2022/09/25 01:53:17;;;;;;;10.10;0.85;;;;;;;10.24;100.00;100498.97;7392103;19;20026;-56
2022/09/25 01:55:47;;;;;;;0.82;0.82;;;;;;;10.26;100.00;100496.50;7394695;19;20011;-56
2022/09/25 01:58:23;;;;;;;1.85;1.73;;;;;;;9.49;100.00;100499.41;7395470;19;20103;-56
2022/09/25 02:00:55;;;;;;;0.60;0.60;;;;;;;9.93;100.00;100495.38;7392506;19;20034;-57
2022/09/25 02:03:36;;;;;;;0.80;0.80;;;;;;;9.80;100.00;100491.88;7392479;19;20010;-57
2022/09/25 02:06:06;;;;;;;0.77;0.77;;;;;;;9.58;100.00;100486.34;7391908;19;20018;-57
2022/09/25 02:08:42;;;;;;;1.88;0.98;;;;;;;9.63;100.00;100490.56;7392693;19;20007;-57
2022/09/25 02:11:09;;;;;;;0.63;0.63;;;;;;;9.58;100.00;100491.91;7392607;19;20012;-57
2022/09/25 02:14:00;;;;;;;0.60;0.60;;;;;;;9.39;100.00;100493.00;7391546;19;20640;-57
2022/09/25 02:16:33;;;;;;;0.60;0.60;;;;;;;9.69;100.00;100494.28;7395420;19;20014;-57
2022/09/25 02:22:08;;;;;;;0.60;0.60;;;;;;;10.02;100.00;100492.63;7391565;19;20119;-57
2022/09/25 02:24:48;;;;;;;0.88;0.88;;;;;;;10.30;100.00;100486.00;7393006;19;20455;-57
2022/09/25 02:27:19;;;;;;;1.20;0.90;;;;;;;10.23;100.00;100486.25;7393181;19;20099;-57
2022/09/25 02:29:45;;;;;;;2.75;0.93;;;;;;;10.24;100.00;100487.03;7392113;19;20014;-57
2022/09/25 02:32:13;;;;;;;0.88;0.88;;;;;;;10.07;100.00;100483.69;7389345;19;20486;-57
2022/09/25 02:34:41;;;;;;;0.88;0.88;;;;;;;9.80;100.00;100486.31;7392780;19;20027;-57
2022/09/25 02:37:14;;;;;;;0.95;0.22;;;;;;;9.71;100.00;100486.25;7391980;19;20461;-57
2022/09/25 02:39:44;;;;;;;0.40;0.40;;;;;;;9.65;100.00;100479.75;7388751;19;20014;-57
2022/09/25 02:42:29;;;;;;;0.90;0.90;;;;;;;9.38;100.00;100490.66;7390065;19;20033;-57
2022/09/25 02:45:33;;;;;;;0.70;0.70;;;;;;;9.63;100.00;100482.22;7391927;19;20086;-57
2022/09/25 02:48:31;;;;;;;0.50;0.50;;;;;;;9.55;100.00;100480.94;7389808;19;20018;-57
2022/09/25 02:51:14;;;;;;;0.80;0.80;;;;;;;9.58;100.00;100480.00;7389546;19;20062;-57
2022/09/25 02:53:46;;;;;;;0.65;0.65;;;;;;;9.47;100.00;100469.28;7391316;19;20085;-57
2022/09/25 02:56:30;;;;;;;0.60;0.60;;;;;;;9.52;100.00;100471.47;7393648;19;20048;-57
2022/09/25 02:59:01;;;;;;;3.92;1.58;;;;;;;9.52;100.00;100459.56;7391297;19;20706;-57
2022/09/25 03:01:31;;;;;;;0.90;0.60;;;;;;;9.67;100.00;100464.16;7389131;19;20018;-57
2022/09/25 03:03:59;;;;;;;0.77;0.77;;;;;;;9.73;100.00;100465.13;7391133;19;20769;-57
2022/09/25 03:06:26;;;;;;;0.82;0.73;;;;;;;9.67;100.00;100457.81;7393811;19;20467;-57
2022/09/25 03:08:56;;;;;;;0.82;0.82;;;;;;;9.68;100.00;100446.22;7389130;19;20011;-57
2022/09/25 03:11:25;;;;;;;0.52;0.52;;;;;;;9.90;100.00;100438.63;7387295;19;20015;-57
2022/09/25 03:14:10;;;;;;;0.68;0.68;;;;;;;10.15;100.00;100437.69;7389868;19;20018;-57
2022/09/25 03:16:42;;;;;;;4.60;0.57;;;;;;;10.02;100.00;100445.34;7389840;19;20010;-57
2022/09/25 03:19:08;;;;;;;2.35;0.93;;;;;;;9.84;100.00;100451.59;7390401;19;20018;-57
2022/09/25 03:21:34;;;;;;;2.03;0.68;;;;;;;10.01;100.00;100432.63;7389385;19;20332;-57
2022/09/25 03:24:00;;;;;;;0.70;0.70;;;;;;;9.74;100.00;100438.09;7391022;19;20014;-57
2022/09/25 03:26:27;;;;;;;0.68;0.68;;;;;;;9.90;100.00;100435.06;7392663;19;20014;-57
2022/09/25 03:28:53;;;;;;;0.50;0.50;;;;;;;9.62;100.00;100431.38;7389948;19;20018;-57
2022/09/25 03:31:20;;;;;;;0.60;0.60;;;;;;;9.87;100.00;100430.44;7388578;19;20014;-57
2022/09/25 03:33:47;;;;;;;0.60;0.60;;;;;;;9.71;100.00;100425.09;7389106;19;20006;-57
2022/09/25 03:36:24;;;;;;;0.70;0.70;;;;;;;9.12;100.00;100421.31;7394051;19;20018;-56
2022/09/25 03:38:54;;;;;;;0.40;0.40;;;;;;;9.74;100.00;100415.84;7390170;19;20031;-57
2022/09/25 03:41:21;;;;;;;0.75;0.73;;;;;;;9.50;100.00;100423.91;7390085;19;20119;-57
2022/09/25 03:43:50;;;;;;;0.88;0.88;;;;;;;9.46;100.00;100414.13;7392276;19;20010;-57
2022/09/25 03:46:22;;;;;;;0.57;0.57;;;;;;;9.46;100.00;100425.25;7391152;19;20021;-57
2022/09/25 03:48:48;;;;;;;1.05;1.05;;;;;;;9.53;100.00;100422.22;7388363;19;20017;-57
2022/09/25 03:51:14;;;;;;;5.32;1.35;;;;;;;9.54;100.00;100424.53;7393653;19;20011;-57
2022/09/25 03:53:41;;;;;;;1.00;0.95;;;;;;;9.54;100.00;100426.53;7397512;19;20074;-57
2022/09/25 03:56:11;;;;;;;1.05;0.95;;;;;;;9.57;100.00;100422.84;7401489;19;20041;-56
2022/09/25 03:58:38;;;;;;;0.60;0.60;;;;;;;9.77;100.00;100420.47;7401448;19;20478;-57
2022/09/25 04:01:05;;;;;;;2.85;1.17;;;;;;;9.68;100.00;100426.75;7397011;19;20007;-57
2022/09/25 04:03:32;;;;;;;1.70;1.20;;;;;;;9.76;100.00;100427.28;7397013;19;20011;-57
2022/09/25 04:06:06;;;;;;;2.13;0.77;;;;;;;9.42;100.00;100427.41;7398054;19;20010;-56
2022/09/25 04:08:34;;;;;;;2.33;1.27;;;;;;;9.39;100.00;100428.28;7393974;19;20010;-56
2022/09/25 04:11:01;;;;;;;0.65;0.47;;;;;;;9.28;100.00;100423.13;7396563;19;20011;-56
2022/09/25 04:13:29;;;;;;;0.30;0.30;;;;;;;9.54;100.00;100423.75;7396591;19;20408;-57
2022/09/25 04:15:57;;;;;;;1.13;1.02;;;;;;;9.57;100.00;100423.59;7399825;19;20614;-57
2022/09/25 04:18:24;;;;;;;0.85;0.85;;;;;;;9.66;100.00;100431.22;7394567;19;20011;-57
2022/09/25 04:20:50;;;;;;;0.95;0.95;;;;;;;9.73;100.00;100425.41;7396026;19;20078;-57
2022/09/25 04:23:17;;;;;;;0.45;0.45;;;;;;;9.72;100.00;100426.66;7396379;19;20037;-56
2022/09/25 04:25:44;;;;;;;1.13;1.10;;;;;;;9.78;100.00;100422.81;7397704;19;20010;-56
2022/09/25 04:28:10;;;;;;;0.93;0.93;;;;;;;9.83;100.00;100427.00;7396832;19;20015;-56
2022/09/25 04:30:37;;;;;;;0.60;0.60;;;;;;;9.84;100.00;100425.75;7396033;19;20014;-57
2022/09/25 04:35:48;;;;;;;0.88;0.73;;;;;;;9.59;100.00;100423.19;7399443;19;20021;-56
2022/09/25 04:38:14;;;;;;;0.70;0.70;;;;;;;9.67;100.00;100421.66;7395268;19;20015;-57
2022/09/25 04:40:40;;;;;;;0.60;0.60;;;;;;;9.81;100.00;100426.69;7395969;19;20458;-56
2022/09/25 04:43:06;;;;;;;0.60;0.60;;;;;;;9.88;100.00;100409.72;7395470;19;20023;-57
2022/09/25 04:45:34;;;;;;;0.55;0.55;;;;;;;9.69;100.00;100408.06;7394990;19;20015;-57
2022/09/25 04:48:00;;;;;;;1.63;0.88;;;;;;;9.75;100.00;100414.59;7394618;19;20348;-57
2022/09/25 04:50:27;;;;;;;3.20;1.48;;;;;;;9.70;100.00;100404.06;7395446;19;20087;-56
2022/09/25 04:53:01;;;;;;;0.95;0.90;;;;;;;9.70;100.00;100409.63;7396091;19;20014;-57
2022/09/25 04:55:27;;;;;;;0.73;0.73;;;;;;;9.50;100.00;100412.00;7398532;19;20344;-57
2022/09/25 04:57:56;;;;;;;3.13;0.98;;;;;;;9.75;100.00;100407.03;7398871;19;20006;-57
2022/09/25 05:00:23;;;;;;;1.42;1.10;;;;;;;9.71;100.00;100400.06;7395800;19;20088;-57
2022/09/25 05:02:49;;;;;;;2.50;1.33;;;;;;;9.79;100.00;100401.31;7393674;19;20019;-56
2022/09/25 05:05:16;;;;;;;1.85;1.75;;;;;;;9.53;100.00;100413.88;7396844;19;20014;-57
2022/09/25 05:07:53;;;;;;;0.82;0.82;;;;;;;9.56;100.00;100410.16;7400092;19;20465;-56
2022/09/25 05:10:21;;;;;;;4.45;1.08;;;;;;;9.55;100.00;100397.50;7398140;19;20046;-57
2022/09/25 05:12:47;;;;;;;1.13;0.85;;;;;;;9.85;100.00;100393.94;7398331;19;20466;-56
2022/09/25 05:15:14;;;;;;;0.50;0.50;;;;;;;9.80;100.00;100402.88;7401390;19;20014;-56
2022/09/25 05:17:40;;;;;;;0.80;0.80;;;;;;;9.56;100.00;100391.50;7398925;19;20454;-56
2022/09/25 05:20:08;;;;;;;2.28;1.02;;;;;;;9.39;100.00;100389.38;7397847;19;20268;-56
2022/09/25 05:22:34;;;;;;;1.13;1.13;;;;;;;9.38;100.00;100387.81;7397948;19;20010;-56
2022/09/25 05:25:00;;;;;;;0.82;0.82;;;;;;;9.15;100.00;100389.06;7399010;19;20030;-57
2022/09/25 05:27:26;;;;;;;0.70;0.70;;;;;;;9.13;100.00;100388.75;7400439;19;20018;-57
2022/09/25 05:29:52;;;;;;;0.50;0.50;;;;;;;9.11;100.00;100378.09;7398256;19;20006;-56
2022/09/25 05:32:19;;;;;;;0.43;0.43;;;;;;;9.12;100.00;100376.06;7397142;19;20014;-56
2022/09/25 05:34:45;;;;;;;0.75;0.75;;;;;;;9.07;100.00;100379.47;7395884;19;20025;-56
2022/09/25 05:37:11;;;;;;;0.40;0.40;;;;;;;9.03;100.00;100385.13;7396858;19;20011;-54
2022/09/25 05:39:37;;;;;;;2.53;0.93;;;;;;;9.03;100.00;100384.38;7393910;19;20018;-56
2022/09/25 05:42:05;;;;;;;0.52;0.52;;;;;;;8.88;100.00;100378.53;7398046;19;20006;-55
2022/09/25 05:44:33;;;;;;;1.10;0.90;;;;;;;8.68;100.00;100391.97;7398052;19;20010;-56
2022/09/25 05:46:59;;;;;;;2.90;1.27;;;;;;;8.75;100.00;100375.03;7399620;19;20014;-56
2022/09/25 05:49:25;;;;;;;1.65;0.95;;;;;;;8.70;100.00;100378.41;7397421;19;20388;-56
2022/09/25 05:51:51;;;;;;;0.73;0.73;;;;;;;8.83;100.00;100370.78;7396964;19;20034;-55
2022/09/25 05:54:17;;;;;;;4.03;1.98;;;;;;;8.80;100.00;100371.69;7395802;19;20010;-56
2022/09/25 05:56:43;;;;;;;1.17;1.17;;;;;;;8.74;100.00;100376.28;7393719;19;20015;-56
2022/09/25 05:59:09;;;;;;;1.17;0.90;;;;;;;8.91;100.00;100385.97;7390597;19;20447;-56
2022/09/25 06:01:36;;;;;;;1.45;1.38;;;;;;;9.03;100.00;100390.69;7391970;19;20040;-56
2022/09/25 06:04:02;;;;;;;1.17;0.68;;;;;;;9.00;100.00;100390.81;7391855;19;20029;-56
2022/09/25 06:06:30;;;;;;;0.70;0.70;;;;;;;8.98;100.00;100387.72;7393600;19;20013;-56
2022/09/25 06:08:56;;;;;;;1.05;1.05;;;;;;;9.02;100.00;100389.16;7391909;19;20475;-56
2022/09/25 06:11:22;;;;;;;1.52;1.10;;;;;;;9.16;100.00;100388.63;7392775;19;20010;-56
2022/09/25 06:13:49;;;;;;;0.70;0.70;;;;;;;9.16;100.00;100371.94;7387868;19;20010;-56
2022/09/25 06:16:18;;;;;;;1.38;1.38;;;;;;;9.12;100.00;100379.63;7396428;19;20336;-56
2022/09/25 06:18:46;;;;;;;0.52;0.52;;;;;;;9.24;100.00;100378.03;7390569;19;20021;-56
2022/09/25 06:21:12;;;;;;;1.50;1.13;;;;;;;9.26;100.00;100380.34;7392007;19;20014;-56
2022/09/25 06:23:41;;;;;;;2.53;1.08;;;;;;;9.51;100.00;100382.94;7391827;19;20363;-56
2022/09/25 06:26:09;;;;;;;0.38;0.38;;;;;;;9.40;100.00;100379.81;7393967;19;20034;-57
2022/09/25 06:28:35;;;;;;;0.40;0.40;;;;;;;9.45;100.00;100385.56;7394882;19;20031;-56
2022/09/25 06:31:02;;;;;;;0.82;0.82;;;;;;;9.55;100.00;100391.94;7392139;19;20120;-56
2022/09/25 06:33:29;;;;;;;1.58;1.30;;;;;;;9.22;100.00;100380.47;7389773;19;20021;-56
2022/09/25 06:35:55;;;;;;;4.60;1.45;;;;;;;9.33;100.00;100391.97;7394463;19;20498;-56
2022/09/25 06:38:21;;;;;;;1.60;1.38;;;;;;;9.37;100.00;100386.28;7390444;19;20074;-57
2022/09/25 06:40:47;;;;;;;0.90;0.90;;;;;;;9.39;100.00;100384.59;7390948;19;20074;-57
2022/09/25 06:43:15;;;;;;;1.35;1.33;;;;;;;9.45;100.00;100382.00;7391204;19;20038;-57
2022/09/25 06:45:42;;;;;;;3.38;1.08;;;;;;;9.51;100.00;100385.72;7391652;19;20038;-57
2022/09/25 06:48:12;;;;;;;0.52;0.52;;;;;;;9.58;100.00;100396.59;7391264;19;20014;-57
2022/09/25 06:50:42;;;;;;;0.55;0.55;;;;;;;9.58;100.00;100393.81;7391389;19;20078;-57
2022/09/25 06:53:10;;;;;;;0.60;0.60;;;;;;;9.51;100.00;100399.63;7391285;19;20011;-57
2022/09/25 06:55:37;;;;;;;0.77;0.77;;;;;;;9.63;100.00;100393.22;7393869;19;20030;-57
2022/09/25 06:58:05;;;;;;;0.52;0.52;;;;;;;9.79;100.00;100379.06;7391981;19;20015;-57
2022/09/25 07:00:32;;;;;;;1.27;1.02;;;;;;;9.88;100.00;100388.22;7389486;19;20348;-57
2022/09/25 07:05:46;;;;;;;1.05;0.98;;;;;;;9.99;100.00;100392.59;7391870;19;20010;-57
2022/09/25 07:08:15;;;;;;;0.55;0.55;;;;;;;10.16;100.00;100391.13;7389959;19;20357;-57
2022/09/25 07:10:53;;;;;;;9.95;1.08;;;;;;;10.18;100.00;100394.25;7388721;19;20018;-57
2022/09/25 07:13:23;;;;;;;0.75;0.75;;;;;;;10.26;100.00;100396.28;7389094;19;20018;-58
2022/09/25 07:16:06;;;;;;;0.57;0.57;;;;;;;10.33;100.00;100390.41;7391600;19;20379;-57
2022/09/25 07:18:33;;;;;;;1.10;0.70;;;;;;;10.36;100.00;100388.72;7393632;19;20042;-57
2022/09/25 07:21:01;;;;;;;2.58;1.08;;;;;;;10.33;100.00;100390.41;7393496;19;20734;-57
2022/09/25 07:23:29;;;;;;;1.75;1.65;;;;;;;10.26;100.00;100384.38;7391255;19;20312;-57
2022/09/25 07:26:02;;;;;;;0.68;0.50;;;;;;;10.19;100.00;100387.44;7390284;19;20739;-57
2022/09/25 07:28:28;;;;;;;0.63;0.63;;;;;;;10.32;100.00;100377.72;7393047;19;20015;-57
2022/09/25 07:30:54;;;;;;;9.30;2.05;;;;;;;10.34;100.00;100389.19;7392841;19;20010;-58
2022/09/25 07:33:23;;;;;;;0.98;0.90;;;;;;;10.30;100.00;100385.78;7392775;19;20338;-57
2022/09/25 07:35:51;;;;;;;2.08;0.77;;;;;;;10.28;100.00;100382.69;7392873;19;20011;-58
2022/09/25 07:38:18;;;;;;;1.15;0.80;;;;;;;10.29;100.00;100384.22;7393057;19;20010;-57
2022/09/25 07:40:44;;;;;;;1.85;1.17;;;;;;;10.35;100.00;100376.78;7392450;19;20010;-58
2022/09/25 07:43:10;;;;;;;1.25;1.15;;;;;;;10.51;100.00;100379.31;7392618;19;20011;-57
2022/09/25 07:45:37;;;;;;;1.98;1.15;;;;;;;10.53;100.00;100376.81;7390084;19;20018;-57
2022/09/25 07:48:05;;;;;;;1.23;0.35;;;;;;;10.56;100.00;100380.69;7390693;19;20006;-57
2022/09/25 07:50:32;;;;;;;1.33;0.88;;;;;;;10.53;100.00;100376.81;7390696;19;20014;-57
2022/09/25 07:52:58;;;;;;;1.65;1.10;;;;;;;10.58;100.00;100362.28;7391427;19;20470;-57
2022/09/25 07:55:27;;;;;;;3.83;1.02;;;;;;;10.87;100.00;100366.63;7392339;19;20031;-58
2022/09/25 07:57:55;;;;;;;1.20;1.10;;;;;;;11.05;100.00;100366.59;7389957;19;20006;-57
2022/09/25 08:00:21;;;;;;;1.30;0.82;;;;;;;11.43;100.00;100361.28;7393217;19;20074;-58
2022/09/25 08:02:58;;;;;;;0.77;0.77;;;;;;;11.29;100.00;100367.50;7392328;19;20014;-57
2022/09/25 08:05:25;;;;;;;0.47;0.47;;;;;;;11.42;100.00;100356.94;7391259;19;20017;-58
2022/09/25 08:07:52;;;;;;;2.45;1.75;;;;;;;11.26;100.00;100360.09;7387192;19;20014;-58
2022/09/25 08:10:19;;;;;;;1.33;0.80;;;;;;;11.43;100.00;100347.34;7391705;19;20018;-58
2022/09/25 08:12:46;;;;;;;1.45;1.25;;;;;;;11.55;100.00;100343.56;7387765;19;20479;-58
2022/09/25 08:15:15;;;;;;;1.95;1.42;;;;;;;11.57;100.00;100355.03;7390603;19;20064;-58
2022/09/25 08:17:41;;;;;;;1.27;1.08;;;;;;;11.79;100.00;100352.03;7387215;19;20037;-58
2022/09/25 08:20:08;;;;;;;0.52;0.52;;;;;;;11.59;100.00;100349.75;7391425;19;20034;-57
2022/09/25 08:22:34;;;;;;;0.40;0.40;;;;;;;11.61;100.00;100343.72;7388235;19;20017;-57
2022/09/25 08:25:01;;;;;;;1.55;1.13;;;;;;;11.75;100.00;100341.03;7389671;19;20014;-58
2022/09/25 08:27:30;;;;;;;1.85;1.20;;;;;;;12.12;100.00;100330.47;7389837;19;20025;-57
2022/09/25 08:29:56;;;;;;;0.70;0.70;;;;;;;12.56;100.00;100331.38;7387652;19;20073;-58
2022/09/25 08:32:23;;;;;;;1.08;0.98;;;;;;;12.77;100.00;100321.13;7386423;19;20431;-58
2022/09/25 08:34:49;;;;;;;2.05;1.05;;;;;;;13.03;100.00;100333.31;7389498;19;20019;-58
2022/09/25 08:37:15;;;;;;;2.17;0.80;;;;;;;13.56;100.00;100336.81;7389369;19;20015;-58
2022/09/25 08:39:42;;;;;;;0.50;0.50;;;;;;;13.97;100.00;100311.72;7395232;19;20015;-58
2022/09/25 08:42:18;;;;;;;3.75;1.30;;;;;;;14.40;100.00;100305.19;7395540;19;20086;-58
2022/09/25 08:49:00;;;;;;;1.10;0.85;;;;;;;14.68;100.00;100314.72;7395705;19;20192;-59
2022/09/25 08:50:23;;;;;;;0.95;0.88;;;;;;;14.67;100.00;100324.38;7394471;19;20011;-58
2022/09/25 08:52:57;;;;;;;5.70;1.27;;;;;;;14.47;100.00;100321.56;7394201;19;20339;-58
2022/09/25 08:59:16;;;;;;;1.05;1.05;;;;;;;14.68;100.00;100325.16;7397172;19;20122;-58
2022/09/25 09:01:46;;;;;;;1.52;0.60;;;;;;;13.85;100.00;100315.59;7395252;19;20026;-58
2022/09/25 09:04:26;;;;;;;0.93;0.87;;;;;;;11.62;100.00;100323.72;7393905;19;20071;-58
2022/09/25 09:06:58;;;;;;;0.90;0.90;;;;;;;14.29;100.00;100308.59;7393557;19;20007;-59
2022/09/25 09:09:35;;;;;;;0.80;0.80;;;;;;;14.82;100.00;100299.03;7394105;19;20018;-58
2022/09/25 09:12:14;;;;;;;2.90;1.50;;;;;;;15.30;100.00;100296.44;7392641;19;20329;-58
2022/09/25 09:14:47;;;;;;;1.25;1.15;;;;;;;15.22;100.00;100301.75;7394972;19;20011;-58
2022/09/25 09:17:23;;;;;;;1.02;1.00;;;;;;;15.18;100.00;100299.13;7394009;19;20515;-58
2022/09/25 09:20:05;;;;;;;1.17;1.02;;;;;;;15.20;100.00;100305.03;7392571;19;20019;-59
2022/09/25 09:22:38;;;;;;;3.65;1.40;;;;;;;12.12;100.00;100303.31;7393611;19;20365;-59
2022/09/25 09:25:24;;;;;;;0.52;0.52;;;;;;;14.98;100.00;100282.41;7393718;19;20012;-59
2022/09/25 09:28:02;;;;;;;1.60;1.10;;;;;;;15.18;100.00;100273.88;7395077;19;20010;-59
2022/09/25 09:30:45;;;;;;;3.13;1.35;;;;;;;15.22;100.00;100278.53;7394376;19;20017;-59
2022/09/25 09:33:33;;;;;;;3.08;1.27;;;;;;;15.42;100.00;100275.63;7392845;19;20102;-59
2022/09/25 09:36:34;;;;;;;3.65;1.10;;;;;;;15.54;100.00;100271.66;7397264;19;20030;-59
2022/09/25 09:39:12;;;;;;;1.00;0.87;;;;;;;15.80;100.00;100266.72;7392504;19;20010;-59
2022/09/25 09:41:51;;;;;;;2.65;0.65;;;;;;;16.04;100.00;100269.94;7393917;19;20543;-59
2022/09/25 09:44:35;;;;;;;0.88;0.88;;;;;;;16.15;100.00;100253.13;7394005;19;20474;-59
2022/09/25 09:47:38;;;;;;;3.97;1.17;;;;;;;16.34;100.00;100254.22;7389359;19;20817;-59
2022/09/25 09:50:16;;;;;;;3.83;1.52;;;;;;;16.90;100.00;100254.38;7392614;19;20042;-60
2022/09/25 09:52:45;;;;;;;2.35;0.88;;;;;;;17.27;100.00;100243.66;7393165;19;20018;-59
2022/09/25 09:55:29;;;;;;;4.30;1.50;;;;;;;17.09;100.00;100236.50;7394887;19;20015;-59
2022/09/25 09:58:06;;;;;;;1.38;0.98;;;;;;;17.16;100.00;100244.44;7395848;19;20014;-59
2022/09/25 10:00:33;;;;;;;0.85;0.60;;;;;;;17.34;100.00;100234.69;7393289;19;20097;-59
2022/09/25 10:03:13;;;;;;;0.85;0.47;;;;;;;17.48;100.00;100233.66;7391965;19;20455;-58
2022/09/25 10:05:46;;;;;;;0.95;0.63;;;;;;;17.59;100.00;100235.72;7393354;19;20028;-60
2022/09/25 10:08:13;;;;;;;2.15;1.05;;;;;;;17.86;100.00;100227.22;7391777;19;20014;-59
2022/09/25 10:10:46;;;;;;;3.90;0.77;;;;;;;18.06;100.00;100218.41;7391736;19;20025;-60
2022/09/25 10:13:20;;;;;;;2.70;1.00;;;;;;;18.44;100.00;100218.75;7392951;19;20030;-59
2022/09/25 10:15:51;;;;;;;0.80;0.45;;;;;;;18.53;100.00;100210.03;7394526;19;20018;-60
2022/09/25 10:18:21;;;;;;;5.45;0.75;;;;;;;18.60;100.00;100220.75;7390338;19;20024;-59
2022/09/25 10:21:20;;;;;;;2.42;0.73;;;;;;;18.61;100.00;100216.63;7391194;19;20015;-59
2022/09/25 10:23:54;;;;;;;0.20;0.20;;;;;;;18.64;100.00;100205.09;7389606;19;20011;-58
2022/09/25 10:26:32;;;;;;;1.23;0.30;;;;;;;18.69;100.00;100206.34;7395332;19;20023;-59
2022/09/25 10:29:00;;;;;;;0.85;0.38;;;;;;;18.77;100.00;100198.84;7389550;19;20078;-59
2022/09/25 10:31:32;;;;;;;0.40;0.40;;;;;;;18.88;100.00;100195.94;7391835;19;20010;-59
2022/09/25 10:34:16;;;;;;;7.85;0.60;;;;;;;18.92;100.00;100193.59;7391988;19;20521;-58
2022/09/25 10:36:46;;;;;;;0.50;0.50;;;;;;;19.41;100.00;100183.94;7391753;19;20014;-59
2022/09/25 10:39:31;;;;;;;0.47;0.20;;;;;;;19.51;100.00;100176.63;7391255;19;20014;-59
2022/09/25 10:41:59;;;;;;;0.43;0.35;;;;;;;19.35;100.00;100183.22;7388885;19;20027;-59
2022/09/25 10:44:32;;;;;;;0.85;0.30;;;;;;;19.32;100.00;100178.59;7390503;19;20010;-59
2022/09/25 10:50:25;;;;;;;1.48;0.40;;;;;;;20.15;100.00;100174.09;7391714;19;20018;-59
2022/09/25 10:53:01;;;;;;;2.10;0.32;;;;;;;20.19;100.00;100174.53;7389616;19;20007;-59
2022/09/25 10:55:29;;;;;;;2.05;0.80;;;;;;;20.28;100.00;100171.38;7392829;19;20051;-60
2022/09/25 10:58:18;;;;;;;1.50;0.40;;;;;;;20.36;100.00;100166.63;7392992;19;20045;-59
2022/09/25 11:00:50;;;;;;;5.43;1.30;;;;;;;20.38;100.00;100170.44;7389065;19;20007;-59
2022/09/25 11:03:31;;;;;;;1.50;0.60;;;;;;;20.29;100.00;100153.84;7390015;19;20388;-59
2022/09/25 11:06:04;;;;;;;1.20;0.77;;;;;;;20.36;100.00;100149.66;7392747;19;20025;-59
2022/09/25 11:08:37;;;;;;;3.75;1.13;;;;;;;20.78;100.00;100148.75;7390498;19;20010;-59
2022/09/25 11:11:06;;;;;;;4.47;0.68;;;;;;;20.96;100.00;100144.34;7390544;19;20347;-60
2022/09/25 11:13:39;;;;;;;1.50;0.60;;;;;;;21.01;100.00;100147.06;7389137;19;20534;-59
2022/09/25 11:16:09;;;;;;;3.67;1.00;;;;;;;21.20;100.00;100141.38;7394270;19;20018;-59
2022/09/25 11:18:37;;;;;;;4.30;0.82;;;;;;;21.09;100.00;100153.66;7389301;19;20010;-59
2022/09/25 11:21:05;;;;;;;1.55;0.22;;;;;;;21.23;100.00;100139.50;7390266;19;20015;-59
2022/09/25 11:23:42;;;;;;;0.75;0.30;;;;;;;21.10;100.00;100140.25;7389840;19;20015;-59
2022/09/25 11:26:16;;;;;;;5.05;0.82;;;;;;;21.34;100.00;100142.13;7393264;19;20014;-59
2022/09/25 11:29:10;;;;;;;0.40;0.32;;;;;;;21.52;100.00;100122.22;7395067;19;20623;-60
2022/09/25 11:31:44;;;;;;;0.85;0.75;;;;;;;21.35;100.00;100123.84;7389827;19;20124;-60
2022/09/25 11:34:28;;;;;;;2.40;0.50;;;;;;;21.20;100.00;100118.72;7390102;19;20014;-59
2022/09/25 11:37:25;;;;;;;0.60;0.40;;;;;;;21.35;100.00;100115.34;7389572;19;20474;-60
2022/09/25 11:43:04;;;;;;;0.75;0.35;;;;;;;21.56;100.00;100099.97;7389945;19;20013;-60
2022/09/25 11:45:38;;;;;;;0.32;0.30;;;;;;;21.50;100.00;100096.50;7391756;19;20184;-60
2022/09/25 11:48:20;;;;;;;3.97;1.30;;;;;;;21.48;100.00;100101.19;7389584;19;20011;-59
2022/09/25 11:51:04;;;;;;;0.32;0.32;;;;;;;21.42;100.00;100092.03;7389576;19;20566;-59
2022/09/25 11:54:09;;;;;;;1.20;0.25;;;;;;;21.78;100.00;100087.41;7389398;19;20459;-60
2022/09/25 11:57:05;;;;;;;0.45;0.32;;;;;;;21.61;100.00;100084.16;7388553;19;20044;-59
2022/09/25 11:59:40;;;;;;;1.75;0.20;;;;;;;21.49;100.00;100088.53;7389422;19;20010;-59
2022/09/25 12:02:35;;;;;;;18.08;0.73;;;;;;;21.53;97.26;100083.28;7389389;19;20342;-60
2022/09/25 12:05:05;;;;;;;0.57;0.30;;;;;;;21.35;97.65;100072.84;7389992;19;20369;-60